Time;durP1;ratioP1;P1;durP2;ratioP2;P2;SDS_P1;SDS_P2;PMS_P1;PMS_P2;Temp;Humidity;BMP_temperature;BMP_pressure;BME280_temperature;BME280_humidity;BME280_pressure;Samples;Min_cycle;Max_cycle;Signal;HPM_P1;HPM_P2
2022/01/15 00:01:55;;;;;;;;;;;0.80;99.90;;;;;;4232936;27;20018;-50
2022/01/15 00:03:57;;;;;;;;;;;0.90;99.90;;;;;;4244021;27;20004;-50
2022/01/15 00:05:59;;;;;;;;;;;0.90;99.90;;;;;;4233477;27;20435;-52
2022/01/15 00:08:02;;;;;;;;;;;0.80;99.90;;;;;;4233326;27;19962;-50
2022/01/15 00:10:04;;;;;;;;;;;0.80;99.90;;;;;;4235480;27;19934;-51
2022/01/15 00:12:07;;;;;;;;;;;0.80;99.90;;;;;;4243621;27;20010;-50
2022/01/15 00:14:36;;;;;;;;;;;0.80;99.90;;;;;;4232845;27;20296;-49
2022/01/15 00:16:45;;;;;;;;;;;0.80;99.90;;;;;;4242354;27;19924;-50
2022/01/15 00:19:02;;;;;;;;;;;0.80;99.90;;;;;;4228884;28;19934;-48
2022/01/15 00:21:04;;;;;;;;;;;0.60;99.90;;;;;;4234228;27;19932;-50
2022/01/15 00:23:06;;;;;;;;;;;0.40;99.90;;;;;;4230307;28;20417;-51
2022/01/15 00:25:08;;;;;;;;;;;0.20;99.90;;;;;;4243009;28;19932;-50
2022/01/15 00:27:10;;;;;;;;;;;0.20;99.90;;;;;;4231966;28;20015;-49
2022/01/15 00:29:12;;;;;;;;;;;0.10;99.90;;;;;;4228424;28;20552;-50
2022/01/15 00:31:14;;;;;;;;;;;0.00;99.90;;;;;;4230245;28;19946;-51
2022/01/15 00:33:16;;;;;;;;;;;0.00;99.90;;;;;;4230741;28;19924;-50
2022/01/15 00:35:19;;;;;;;;;;;-0.10;99.90;;;;;;4234939;28;19945;-48
2022/01/15 00:37:21;;;;;;;;;;;-0.10;99.90;;;;;;4239983;28;19963;-49
2022/01/15 00:39:23;;;;;;;;;;;0.00;99.90;;;;;;4232091;28;19928;-49
2022/01/15 00:41:26;;;;;;;;;;;0.00;99.90;;;;;;4239845;27;19971;-49
2022/01/15 00:43:28;;;;;;;;;;;0.10;99.90;;;;;;4234242;27;19985;-49
2022/01/15 00:45:33;;;;;;;;;;;0.10;99.90;;;;;;4230822;27;19990;-50
2022/01/15 00:47:35;;;;;;;;;;;0.20;99.90;;;;;;4236115;27;20273;-49
2022/01/15 00:49:37;;;;;;;;;;;0.30;99.90;;;;;;4235967;27;19924;-48
2022/01/15 00:51:39;;;;;;;;;;;0.20;99.90;;;;;;4232928;27;19928;-51
2022/01/15 00:53:41;;;;;;;;;;;0.30;99.90;;;;;;4243446;27;19975;-48
2022/01/15 00:55:43;;;;;;;;;;;0.40;99.90;;;;;;4235947;27;19932;-50
2022/01/15 00:57:45;;;;;;;;;;;0.40;99.90;;;;;;4246977;27;19973;-50
2022/01/15 00:59:47;;;;;;;;;;;0.40;99.90;;;;;;4237058;27;20019;-50
2022/01/15 01:01:48;;;;;;;;;;;0.50;99.90;;;;;;4246171;27;20596;-51
2022/01/15 01:03:51;;;;;;;;;;;0.50;99.90;;;;;;4235638;27;20026;-51
2022/01/15 01:05:52;;;;;;;;;;;0.40;99.90;;;;;;4245676;27;19923;-50
2022/01/15 01:07:56;;;;;;;;;;;0.50;99.90;;;;;;4234743;27;20022;-47
2022/01/15 01:12:20;;;;;;;;;;;0.30;99.90;;;;;;4234971;27;19993;-51
2022/01/15 01:22:52;;;;;;;;;;;0.20;99.90;;;;;;4240058;27;19963;-48
2022/01/15 01:23:49;;;;;;;;;;;0.00;99.90;;;;;;4219911;27;19924;-51
2022/01/15 01:25:57;;;;;;;;;;;-0.10;99.90;;;;;;4229770;28;19948;-50
2022/01/15 01:28:07;;;;;;;;;;;-0.20;99.90;;;;;;4233287;27;20158;-50
2022/01/15 01:30:22;;;;;;;;;;;-0.20;99.90;;;;;;4230365;27;20291;-51
2022/01/15 01:34:34;;;;;;;;;;;-0.20;99.90;;;;;;4241853;27;19923;-51
2022/01/15 01:36:48;;;;;;;;;;;-0.10;99.90;;;;;;4235113;27;20549;-49
2022/01/15 01:38:54;;;;;;;;;;;0.00;99.90;;;;;;4229596;28;19974;-51
2022/01/15 01:40:58;;;;;;;;;;;0.00;99.90;;;;;;4235944;27;19931;-50
2022/01/15 01:43:07;;;;;;;;;;;0.00;99.90;;;;;;4244570;27;19928;-48
2022/01/15 01:45:14;;;;;;;;;;;0.00;99.90;;;;;;4233503;27;20059;-49
2022/01/15 01:47:26;;;;;;;;;;;0.00;99.90;;;;;;4233489;27;19924;-50
2022/01/15 01:49:28;;;;;;;;;;;0.00;99.90;;;;;;4232797;27;20387;-50
2022/01/15 01:51:34;;;;;;;;;;;-0.10;99.90;;;;;;4239115;27;20014;-49
2022/01/15 01:53:37;;;;;;;;;;;-0.20;99.90;;;;;;4234616;27;19945;-51
2022/01/15 01:55:39;;;;;;;;;;;-0.20;99.90;;;;;;4229550;28;19974;-49
2022/01/15 01:57:41;;;;;;;;;;;-0.30;99.90;;;;;;4235599;27;20014;-49
2022/01/15 01:59:43;;;;;;;;;;;-0.30;99.90;;;;;;4236599;27;19931;-51
2022/01/15 02:01:45;;;;;;;;;;;-0.20;99.90;;;;;;4215765;28;20636;-48
2022/01/15 02:03:47;;;;;;;;;;;-0.20;99.90;;;;;;4245739;27;19923;-52
2022/01/15 02:05:49;;;;;;;;;;;-0.30;99.90;;;;;;4233877;27;19974;-50
2022/01/15 02:07:51;;;;;;;;;;;-0.30;99.90;;;;;;4237670;27;20414;-49
2022/01/15 02:09:54;;;;;;;;;;;-0.30;99.90;;;;;;4233563;27;19935;-48
2022/01/15 02:11:56;;;;;;;;;;;-0.30;99.90;;;;;;4236589;27;19923;-50
2022/01/15 02:13:58;;;;;;;;;;;-0.40;99.90;;;;;;4219188;28;20420;-48
2022/01/15 02:16:00;;;;;;;;;;;-0.30;99.90;;;;;;4243424;27;19933;-50
2022/01/15 02:18:02;;;;;;;;;;;-0.30;99.90;;;;;;4238461;27;19923;-49
2022/01/15 02:24:48;;;;;;;;;;;-0.40;99.90;;;;;;4232259;27;20484;-49
2022/01/15 02:26:50;;;;;;;;;;;-0.50;99.90;;;;;;4237313;27;19930;-52
2022/01/15 02:28:56;;;;;;;;;;;-0.60;99.90;;;;;;4241886;27;19927;-49
2022/01/15 02:30:59;;;;;;;;;;;-0.60;99.90;;;;;;4218788;27;19927;-48
2022/01/15 02:33:01;;;;;;;;;;;-0.60;99.90;;;;;;4233276;27;19930;-48
2022/01/15 02:35:04;;;;;;;;;;;-0.70;99.90;;;;;;4232464;27;20290;-51
2022/01/15 02:37:06;;;;;;;;;;;-0.70;99.90;;;;;;4237001;27;19955;-51
2022/01/15 02:39:08;;;;;;;;;;;-0.80;99.90;;;;;;4234372;27;20387;-49
2022/01/15 02:41:10;;;;;;;;;;;-0.80;99.90;;;;;;4239210;27;19938;-47
2022/01/15 02:43:16;;;;;;;;;;;-0.90;99.90;;;;;;4232124;27;19924;-50
2022/01/15 02:45:22;;;;;;;;;;;-0.90;99.90;;;;;;4241973;27;19934;-51
2022/01/15 02:49:44;;;;;;;;;;;-0.90;99.90;;;;;;4228541;28;20144;-51
2022/01/15 02:51:46;;;;;;;;;;;-1.00;99.90;;;;;;4234780;27;19978;-51
2022/01/15 02:53:55;;;;;;;;;;;-0.90;99.90;;;;;;4234505;27;20317;-49
2022/01/15 02:55:57;;;;;;;;;;;-0.80;99.90;;;;;;4230013;27;20362;-51
2022/01/15 02:57:59;;;;;;;;;;;-0.70;99.90;;;;;;4240974;27;19931;-51
2022/01/15 03:00:02;;;;;;;;;;;-0.70;99.90;;;;;;4232260;27;19923;-51
2022/01/15 03:02:04;;;;;;;;;;;-0.60;99.90;;;;;;4231434;27;19934;-51
2022/01/15 03:04:06;;;;;;;;;;;-0.50;99.90;;;;;;4215388;28;20021;-50
2022/01/15 03:06:09;;;;;;;;;;;-0.50;99.90;;;;;;4234962;27;19945;-50
2022/01/15 03:08:11;;;;;;;;;;;-0.50;99.90;;;;;;4234686;27;20384;-50
2022/01/15 03:10:13;;;;;;;;;;;-0.40;99.90;;;;;;4240919;27;19967;-50
2022/01/15 03:12:15;;;;;;;;;;;-0.40;99.90;;;;;;4234144;27;20031;-50
2022/01/15 03:14:19;;;;;;;;;;;-0.20;99.90;;;;;;4230613;27;19924;-51
2022/01/15 03:16:22;;;;;;;;;;;-0.10;99.90;;;;;;4232110;27;20464;-50
2022/01/15 03:18:24;;;;;;;;;;;-0.10;99.90;;;;;;4239109;27;19935;-50
2022/01/15 03:20:26;;;;;;;;;;;-0.10;99.90;;;;;;4234102;27;19927;-50
2022/01/15 03:22:28;;;;;;;;;;;-0.20;99.90;;;;;;4237370;27;20027;-49
2022/01/15 03:24:30;;;;;;;;;;;-0.40;99.90;;;;;;4231301;27;20334;-51
2022/01/15 03:26:32;;;;;;;;;;;-0.60;99.90;;;;;;4233906;27;20023;-50
2022/01/15 03:28:37;;;;;;;;;;;-0.70;99.90;;;;;;4235731;27;19923;-48
2022/01/15 03:30:39;;;;;;;;;;;-0.80;99.90;;;;;;4230310;27;20491;-50
2022/01/15 03:32:43;;;;;;;;;;;-1.00;99.90;;;;;;4230209;27;20396;-49
2022/01/15 03:34:45;;;;;;;;;;;-0.80;99.90;;;;;;4244018;27;19931;-49
2022/01/15 03:36:47;;;;;;;;;;;-0.90;99.90;;;;;;4233286;27;19924;-51
2022/01/15 03:38:49;;;;;;;;;;;-0.90;99.90;;;;;;4240526;27;19924;-51
2022/01/15 03:40:54;;;;;;;;;;;-0.70;99.90;;;;;;4217895;28;19928;-50
2022/01/15 03:42:57;;;;;;;;;;;-0.60;99.90;;;;;;4238979;27;19928;-50
2022/01/15 03:44:59;;;;;;;;;;;-0.70;99.90;;;;;;4238066;27;19923;-50
2022/01/15 03:47:01;;;;;;;;;;;-0.70;99.90;;;;;;4229952;27;19947;-47
2022/01/15 03:49:03;;;;;;;;;;;-0.80;99.90;;;;;;4236716;27;19960;-48
2022/01/15 03:51:05;;;;;;;;;;;-0.80;99.90;;;;;;4232219;27;19932;-47
2022/01/15 03:53:07;;;;;;;;;;;-0.80;99.90;;;;;;4221845;28;20379;-47
2022/01/15 03:55:10;;;;;;;;;;;-0.80;99.90;;;;;;4240435;27;19927;-49
2022/01/15 03:57:12;;;;;;;;;;;-0.70;99.90;;;;;;4235732;27;20035;-50
2022/01/15 03:59:14;;;;;;;;;;;-0.70;99.90;;;;;;4241547;27;20344;-48
2022/01/15 04:01:16;;;;;;;;;;;-0.70;99.90;;;;;;4239975;27;20399;-50
2022/01/15 04:03:18;;;;;;;;;;;-0.70;99.90;;;;;;4228369;27;19923;-50
2022/01/15 04:05:20;;;;;;;;;;;-0.60;99.90;;;;;;4218020;28;19955;-50
2022/01/15 04:07:22;;;;;;;;;;;-0.60;99.90;;;;;;4240505;27;19963;-49
2022/01/15 04:09:24;;;;;;;;;;;-0.60;99.90;;;;;;4233638;27;19924;-48
2022/01/15 04:11:26;;;;;;;;;;;-0.60;99.90;;;;;;4240550;27;19931;-47
2022/01/15 04:13:28;;;;;;;;;;;-0.60;99.90;;;;;;4239517;27;19931;-51
2022/01/15 04:15:30;;;;;;;;;;;-0.70;99.90;;;;;;4227404;28;20288;-49
2022/01/15 04:17:32;;;;;;;;;;;-0.80;99.90;;;;;;4234897;27;19939;-50
2022/01/15 04:19:35;;;;;;;;;;;-0.90;99.90;;;;;;4236366;28;19966;-51
2022/01/15 04:21:37;;;;;;;;;;;-0.90;99.90;;;;;;4242193;28;19971;-51
2022/01/15 04:23:39;;;;;;;;;;;-0.90;99.90;;;;;;4227176;28;19927;-50
2022/01/15 04:25:41;;;;;;;;;;;-0.90;99.90;;;;;;4232167;28;19966;-48
2022/01/15 04:27:44;;;;;;;;;;;-0.80;99.90;;;;;;4228911;28;19931;-51
2022/01/15 04:29:46;;;;;;;;;;;-0.80;99.90;;;;;;4232095;28;20402;-51
2022/01/15 04:31:48;;;;;;;;;;;-0.90;99.90;;;;;;4234407;28;19927;-51
2022/01/15 04:33:50;;;;;;;;;;;-0.90;99.90;;;;;;4240071;28;20077;-50
2022/01/15 04:35:52;;;;;;;;;;;-0.90;99.90;;;;;;4233583;28;19962;-50
2022/01/15 04:38:02;;;;;;;;;;;-0.90;99.90;;;;;;4221663;28;19963;-49
2022/01/15 04:40:05;;;;;;;;;;;-0.90;99.90;;;;;;4229883;28;19978;-50
2022/01/15 04:42:06;;;;;;;;;;;-0.90;99.90;;;;;;4230340;28;19928;-51
2022/01/15 04:44:08;;;;;;;;;;;-0.80;99.90;;;;;;4234671;28;20352;-50
2022/01/15 04:46:10;;;;;;;;;;;-0.80;99.90;;;;;;4236390;28;19931;-50
2022/01/15 04:48:12;;;;;;;;;;;-0.70;99.90;;;;;;4217025;28;19935;-49
2022/01/15 04:50:16;;;;;;;;;;;-0.70;99.90;;;;;;4241584;28;19930;-51
2022/01/15 04:52:18;;;;;;;;;;;-0.80;99.90;;;;;;4234319;28;19934;-51
2022/01/15 04:54:20;;;;;;;;;;;-0.80;99.90;;;;;;4243143;28;19930;-48
2022/01/15 04:56:22;;;;;;;;;;;-0.80;99.90;;;;;;4232936;28;19924;-52
2022/01/15 04:58:27;;;;;;;;;;;-0.90;99.90;;;;;;4242141;28;20384;-50
2022/01/15 05:00:29;;;;;;;;;;;-1.00;99.90;;;;;;4230272;28;19992;-51
2022/01/15 05:02:31;;;;;;;;;;;-1.00;99.90;;;;;;4240343;28;20299;-51
2022/01/15 05:04:33;;;;;;;;;;;-1.10;99.90;;;;;;4235149;28;19962;-50
2022/01/15 05:06:36;;;;;;;;;;;-1.10;99.90;;;;;;4240038;28;19931;-51
2022/01/15 05:08:40;;;;;;;;;;;-1.10;99.90;;;;;;4235107;28;19966;-51
2022/01/15 05:10:46;;;;;;;;;;;-1.20;99.90;;;;;;4243227;28;20299;-50
2022/01/15 05:12:49;;;;;;;;;;;-1.10;99.90;;;;;;4233979;28;19966;-51
2022/01/15 05:14:51;;;;;;;;;;;-1.10;99.90;;;;;;4239366;28;19931;-47
2022/01/15 05:16:53;;;;;;;;;;;-1.20;99.90;;;;;;4232371;28;19934;-52
2022/01/15 05:18:55;;;;;;;;;;;-1.20;99.90;;;;;;4241031;28;19948;-50
2022/01/15 05:20:57;;;;;;;;;;;-1.30;99.90;;;;;;4233235;28;20026;-50
2022/01/15 05:22:59;;;;;;;;;;;-1.40;99.90;;;;;;4243183;28;19923;-51
2022/01/15 05:25:02;;;;;;;;;;;-1.50;99.90;;;;;;4230271;28;20373;-49
2022/01/15 05:27:04;;;;;;;;;;;-1.50;99.90;;;;;;4232145;27;19963;-51
2022/01/15 05:29:06;;;;;;;;;;;-1.60;99.90;;;;;;4235074;27;19924;-50
2022/01/15 05:31:07;;;;;;;;;;;-1.60;99.90;;;;;;4242692;27;19992;-49
2022/01/15 05:33:09;;;;;;;;;;;-1.60;99.90;;;;;;4234288;27;20383;-51
2022/01/15 05:35:11;;;;;;;;;;;-1.50;99.90;;;;;;4244735;27;20299;-51
2022/01/15 05:37:13;;;;;;;;;;;-1.50;99.90;;;;;;4235676;27;19923;-48
2022/01/15 05:39:15;;;;;;;;;;;-1.50;99.90;;;;;;4232004;27;19924;-48
2022/01/15 05:41:17;;;;;;;;;;;-1.50;99.90;;;;;;4218148;27;20387;-49
2022/01/15 05:43:19;;;;;;;;;;;-1.40;99.90;;;;;;4239998;27;19965;-51
2022/01/15 05:45:21;;;;;;;;;;;-1.30;99.90;;;;;;4234986;27;19927;-52
2022/01/15 05:47:23;;;;;;;;;;;-1.20;99.90;;;;;;4246242;27;20018;-52
2022/01/15 05:49:25;;;;;;;;;;;-1.30;99.90;;;;;;4236894;27;20014;-51
2022/01/15 05:51:29;;;;;;;;;;;-1.20;99.90;;;;;;4228233;28;19981;-50
2022/01/15 05:53:31;;;;;;;;;;;-1.10;99.90;;;;;;4237854;27;19924;-49
2022/01/15 05:55:33;;;;;;;;;;;-1.10;99.90;;;;;;4235023;27;19923;-50
2022/01/15 05:57:35;;;;;;;;;;;-1.10;99.90;;;;;;4234941;27;19928;-50
2022/01/15 05:59:37;;;;;;;;;;;-0.90;99.90;;;;;;4213830;28;19968;-49
2022/01/15 06:01:42;;;;;;;;;;;-0.80;99.90;;;;;;4232055;27;19938;-50
2022/01/15 06:03:44;;;;;;;;;;;-0.70;99.90;;;;;;4245214;27;19928;-50
2022/01/15 06:05:46;;;;;;;;;;;-0.70;99.90;;;;;;4236351;27;20330;-51
2022/01/15 06:07:47;;;;;;;;;;;-0.90;99.90;;;;;;4233156;27;19938;-51
2022/01/15 06:09:49;;;;;;;;;;;-0.90;99.90;;;;;;4235621;27;19923;-47
2022/01/15 06:11:54;;;;;;;;;;;-0.90;99.90;;;;;;4238505;27;20567;-50
2022/01/15 06:13:56;;;;;;;;;;;-0.90;99.90;;;;;;4232669;27;19963;-48
2022/01/15 06:15:58;;;;;;;;;;;-1.10;99.90;;;;;;4244578;27;19963;-51
2022/01/15 06:18:00;;;;;;;;;;;-1.30;99.90;;;;;;4235093;27;19924;-50
2022/01/15 06:20:03;;;;;;;;;;;-1.30;99.90;;;;;;4243497;27;20026;-51
2022/01/15 06:22:04;;;;;;;;;;;-1.20;99.90;;;;;;4235193;27;19954;-50
2022/01/15 06:24:07;;;;;;;;;;;-1.30;99.90;;;;;;4240914;27;19985;-49
2022/01/15 06:26:09;;;;;;;;;;;-1.20;99.90;;;;;;4237650;27;19959;-50
2022/01/15 06:28:11;;;;;;;;;;;-1.40;99.90;;;;;;4243327;27;19923;-50
2022/01/15 06:30:13;;;;;;;;;;;-1.40;99.90;;;;;;4239491;27;19980;-50
2022/01/15 06:32:15;;;;;;;;;;;-1.50;99.90;;;;;;4229664;27;19965;-51
2022/01/15 06:34:16;;;;;;;;;;;-1.60;99.90;;;;;;4233546;27;19928;-51
2022/01/15 06:36:18;;;;;;;;;;;-1.60;99.90;;;;;;4238486;27;19927;-51
2022/01/15 06:38:20;;;;;;;;;;;-1.60;99.90;;;;;;4233386;27;19949;-49
2022/01/15 06:40:22;;;;;;;;;;;-1.60;99.90;;;;;;4236357;27;20404;-51
2022/01/15 06:42:24;;;;;;;;;;;-1.50;99.90;;;;;;4238269;27;19923;-52
2022/01/15 06:44:26;;;;;;;;;;;-1.50;99.90;;;;;;4221896;28;19967;-49
2022/01/15 06:46:28;;;;;;;;;;;-1.50;99.90;;;;;;4238972;27;20034;-48
2022/01/15 06:48:30;;;;;;;;;;;-1.50;99.90;;;;;;4240172;27;20031;-50
2022/01/15 06:50:32;;;;;;;;;;;-1.50;99.90;;;;;;4238883;27;19923;-51
2022/01/15 06:52:37;;;;;;;;;;;-1.60;99.90;;;;;;4238078;27;19934;-51
2022/01/15 06:54:39;;;;;;;;;;;-1.70;99.90;;;;;;4243468;27;19928;-51
2022/01/15 06:56:42;;;;;;;;;;;-1.80;99.90;;;;;;4228699;28;19923;-50
2022/01/15 06:58:45;;;;;;;;;;;-1.80;99.90;;;;;;4230442;27;20022;-51
2022/01/15 07:00:47;;;;;;;;;;;-1.80;99.90;;;;;;4237487;27;19932;-48
2022/01/15 07:02:49;;;;;;;;;;;-1.80;99.90;;;;;;4238802;27;19930;-50
2022/01/15 07:04:51;;;;;;;;;;;-1.70;99.90;;;;;;4236595;27;20019;-51
2022/01/15 07:06:53;;;;;;;;;;;-1.70;99.90;;;;;;4225740;28;19986;-48
2022/01/15 07:08:55;;;;;;;;;;;-1.60;99.90;;;;;;4233778;27;19924;-49
2022/01/15 07:10:57;;;;;;;;;;;-1.70;99.90;;;;;;4239707;27;20509;-51
2022/01/15 07:12:59;;;;;;;;;;;-1.70;99.90;;;;;;4237063;27;19967;-51
2022/01/15 07:15:02;;;;;;;;;;;-1.60;99.90;;;;;;4240903;27;19927;-51
2022/01/15 07:17:04;;;;;;;;;;;-1.60;99.90;;;;;;4234820;27;19923;-48
2022/01/15 07:19:05;;;;;;;;;;;-1.70;99.90;;;;;;4237590;27;19967;-50
2022/01/15 07:21:09;;;;;;;;;;;-1.70;99.90;;;;;;4234864;27;19935;-52
2022/01/15 07:23:11;;;;;;;;;;;-1.60;99.90;;;;;;4242222;27;20430;-50
2022/01/15 07:25:14;;;;;;;;;;;-1.50;99.90;;;;;;4232550;27;19963;-50
2022/01/15 07:27:16;;;;;;;;;;;-1.30;99.90;;;;;;4242793;27;19923;-48
2022/01/15 07:29:18;;;;;;;;;;;-1.20;99.90;;;;;;4229809;27;19931;-51
2022/01/15 07:31:20;;;;;;;;;;;-1.00;99.90;;;;;;4233543;27;19930;-50
2022/01/15 07:33:22;;;;;;;;;;;-0.90;99.90;;;;;;4234384;27;19927;-51
2022/01/15 07:35:24;;;;;;;;;;;-0.90;99.90;;;;;;4242307;27;20022;-48
2022/01/15 07:37:26;;;;;;;;;;;-0.90;99.90;;;;;;4231432;27;19969;-51
2022/01/15 07:39:28;;;;;;;;;;;-0.90;99.90;;;;;;4229082;27;20427;-50
2022/01/15 07:41:29;;;;;;;;;;;-0.90;99.90;;;;;;4232533;27;19959;-48
2022/01/15 07:43:31;;;;;;;;;;;-0.90;99.90;;;;;;4210830;28;20010;-48
2022/01/15 07:45:33;;;;;;;;;;;-1.00;99.90;;;;;;4235111;27;20375;-50
2022/01/15 07:47:36;;;;;;;;;;;-1.00;99.90;;;;;;4241181;27;19954;-49
2022/01/15 07:49:38;;;;;;;;;;;-1.00;99.90;;;;;;4232628;27;20471;-52
2022/01/15 07:51:40;;;;;;;;;;;-1.00;99.90;;;;;;4243483;27;19963;-53
2022/01/15 07:53:43;;;;;;;;;;;-0.80;99.90;;;;;;4233776;27;20437;-49
2022/01/15 07:55:44;;;;;;;;;;;-0.60;99.90;;;;;;4237995;27;20391;-53
2022/01/15 07:57:46;;;;;;;;;;;-0.40;99.90;;;;;;4230801;27;19959;-52
2022/01/15 07:59:50;;;;;;;;;;;-0.30;99.90;;;;;;4232705;27;19932;-50
2022/01/15 08:01:52;;;;;;;;;;;0.00;99.90;;;;;;4232141;27;19976;-52
2022/01/15 08:03:54;;;;;;;;;;;0.10;99.90;;;;;;4239414;27;20359;-52
2022/01/15 08:05:56;;;;;;;;;;;0.30;99.90;;;;;;4232541;27;19923;-51
2022/01/15 08:07:58;;;;;;;;;;;0.60;99.90;;;;;;4236250;27;20447;-50
2022/01/15 08:10:04;;;;;;;;;;;0.60;99.90;;;;;;4234638;27;20462;-53
2022/01/15 08:12:06;;;;;;;;;;;0.60;99.90;;;;;;4228088;28;19971;-52
2022/01/15 08:14:08;;;;;;;;;;;0.60;99.90;;;;;;4232425;27;19931;-52
2022/01/15 08:16:10;;;;;;;;;;;0.60;99.90;;;;;;4244238;27;19923;-51
2022/01/15 08:18:12;;;;;;;;;;;0.50;99.90;;;;;;4230182;27;19923;-53
2022/01/15 08:20:16;;;;;;;;;;;0.40;99.90;;;;;;4242961;27;19928;-54
2022/01/15 08:22:18;;;;;;;;;;;0.30;99.90;;;;;;4232646;28;19931;-54
2022/01/15 08:24:20;;;;;;;;;;;0.40;99.90;;;;;;4233186;28;19977;-51
2022/01/15 08:26:22;;;;;;;;;;;0.50;99.90;;;;;;4230290;28;19994;-53
2022/01/15 08:28:24;;;;;;;;;;;0.50;99.90;;;;;;4241897;28;19938;-54
2022/01/15 08:30:26;;;;;;;;;;;0.60;99.90;;;;;;4231325;28;19928;-52
2022/01/15 08:32:28;;;;;;;;;;;0.70;99.90;;;;;;4239875;28;20681;-53
2022/01/15 08:34:30;;;;;;;;;;;0.80;99.90;;;;;;4234161;28;20337;-52
2022/01/15 08:36:36;;;;;;;;;;;1.00;99.90;;;;;;4239841;28;19927;-53
2022/01/15 08:38:38;;;;;;;;;;;1.10;99.90;;;;;;4233660;28;19950;-53
2022/01/15 08:40:57;;;;;;;;;;;1.10;99.90;;;;;;4242312;28;19934;-52
2022/01/15 08:43:02;;;;;;;;;;;1.10;99.90;;;;;;4233502;28;19932;-53
2022/01/15 08:45:05;;;;;;;;;;;1.10;99.90;;;;;;4248306;27;19931;-52
2022/01/15 08:47:07;;;;;;;;;;;1.10;99.90;;;;;;4234333;28;20279;-53
2022/01/15 08:49:09;;;;;;;;;;;1.10;99.90;;;;;;4239791;28;19976;-52
2022/01/15 08:51:11;;;;;;;;;;;1.10;99.90;;;;;;4233431;28;19959;-54
2022/01/15 08:53:15;;;;;;;;;;;1.20;99.90;;;;;;4243258;28;19963;-54
2022/01/15 08:55:17;;;;;;;;;;;1.20;99.90;;;;;;4215265;28;19924;-54
2022/01/15 08:57:19;;;;;;;;;;;1.40;99.90;;;;;;4233155;28;19931;-54
2022/01/15 08:59:23;;;;;;;;;;;1.50;99.90;;;;;;4233126;28;19927;-53
2022/01/15 09:01:25;;;;;;;;;;;1.70;99.90;;;;;;4243158;27;19976;-52
2022/01/15 09:03:27;;;;;;;;;;;1.80;99.90;;;;;;4239688;27;19923;-53
2022/01/15 09:05:31;;;;;;;;;;;1.90;99.90;;;;;;4232617;27;19927;-53
2022/01/15 09:07:34;;;;;;;;;;;1.90;99.90;;;;;;4239259;27;19939;-53
2022/01/15 09:09:36;;;;;;;;;;;1.90;99.90;;;;;;4231082;27;19962;-54
2022/01/15 09:11:38;;;;;;;;;;;1.80;99.90;;;;;;4218151;28;19928;-53
2022/01/15 09:13:40;;;;;;;;;;;1.70;99.90;;;;;;4242113;27;19932;-54
2022/01/15 09:15:42;;;;;;;;;;;1.70;99.90;;;;;;4237244;27;20018;-54
2022/01/15 09:17:44;;;;;;;;;;;1.80;99.90;;;;;;4243507;27;20019;-54
2022/01/15 09:19:46;;;;;;;;;;;1.90;99.90;;;;;;4214621;28;19970;-52
2022/01/15 09:21:48;;;;;;;;;;;2.00;99.90;;;;;;4242294;27;19923;-52
2022/01/15 09:23:51;;;;;;;;;;;2.10;99.90;;;;;;4237160;27;20008;-54
2022/01/15 09:25:53;;;;;;;;;;;2.40;99.90;;;;;;4234575;27;19962;-53
2022/01/15 09:30:16;;;;;;;;;;;2.70;99.90;;;;;;4235190;27;19967;-53
2022/01/15 09:32:18;;;;;;;;;;;2.80;99.90;;;;;;4238089;27;19923;-53
2022/01/15 09:34:20;;;;;;;;;;;3.00;99.90;;;;;;4235986;27;19977;-53
2022/01/15 09:36:22;;;;;;;;;;;3.10;99.90;;;;;;4235528;27;19959;-52
2022/01/15 09:38:24;;;;;;;;;;;3.30;99.90;;;;;;4233804;27;19958;-54
2022/01/15 09:40:27;;;;;;;;;;;3.40;99.90;;;;;;4234697;27;20030;-54
2022/01/15 09:42:29;;;;;;;;;;;3.50;99.90;;;;;;4233997;27;19931;-55
2022/01/15 09:44:32;;;;;;;;;;;3.50;99.90;;;;;;4238453;27;19959;-54
2022/01/15 09:46:34;;;;;;;;;;;3.60;99.90;;;;;;4236696;27;20295;-54
2022/01/15 09:48:38;;;;;;;;;;;3.70;99.90;;;;;;4242661;27;20019;-54
2022/01/15 09:50:42;;;;;;;;;;;3.70;99.90;;;;;;4236711;27;19988;-54
2022/01/15 09:52:45;;;;;;;;;;;3.90;99.90;;;;;;4224727;28;19924;-54
2022/01/15 09:54:47;;;;;;;;;;;3.90;99.90;;;;;;4235881;27;19938;-55
2022/01/15 09:56:49;;;;;;;;;;;4.10;99.90;;;;;;4243980;27;19970;-54
2022/01/15 09:58:53;;;;;;;;;;;4.20;99.90;;;;;;4236671;27;19963;-54
2022/01/15 10:00:55;;;;;;;;;;;4.30;99.90;;;;;;4236196;27;20391;-55
2022/01/15 10:02:57;;;;;;;;;;;4.50;99.90;;;;;;4235746;27;20018;-55
2022/01/15 10:05:00;;;;;;;;;;;4.60;99.90;;;;;;4242442;27;19930;-55
2022/01/15 10:07:09;;;;;;;;;;;4.80;99.90;;;;;;4236741;27;19970;-55
2022/01/15 10:09:11;;;;;;;;;;;5.00;99.90;;;;;;4244013;27;19927;-55
2022/01/15 10:11:13;;;;;;;;;;;5.20;99.90;;;;;;4234345;27;19932;-55
2022/01/15 10:13:22;;;;;;;;;;;5.40;99.90;;;;;;4234713;27;20420;-55
2022/01/15 10:15:24;;;;;;;;;;;5.60;99.90;;;;;;4232508;27;20022;-55
2022/01/15 10:17:30;;;;;;;;;;;5.70;99.90;;;;;;4238503;27;20399;-53
2022/01/15 10:19:33;;;;;;;;;;;5.90;99.90;;;;;;4233158;27;20007;-54
2022/01/15 10:21:35;;;;;;;;;;;6.00;99.90;;;;;;4242435;27;19924;-55
2022/01/15 10:23:44;;;;;;;;;;;6.20;99.90;;;;;;4234337;27;19951;-55
2022/01/15 10:26:06;;;;;;;;;;;6.40;99.90;;;;;;4228998;28;20253;-54
2022/01/15 10:28:09;;;;;;;;;;;6.70;99.90;;;;;;4218811;27;19946;-54
2022/01/15 10:30:11;;;;;;;;;;;6.80;99.90;;;;;;4242149;27;19935;-54
2022/01/15 10:32:13;;;;;;;;;;;7.00;99.90;;;;;;4234734;27;19981;-55
2022/01/15 10:34:28;;;;;;;;;;;7.10;99.90;;;;;;4224022;28;19975;-55
2022/01/15 10:36:31;;;;;;;;;;;7.30;99.90;;;;;;4216091;28;19950;-54
2022/01/15 10:38:33;;;;;;;;;;;7.40;99.90;;;;;;4229009;27;19958;-55
2022/01/15 10:40:39;;;;;;;;;;;7.70;99.90;;;;;;4235927;27;20003;-55
2022/01/15 10:42:49;;;;;;;;;;;7.90;99.90;;;;;;4235277;27;19934;-55
2022/01/15 10:44:51;;;;;;;;;;;8.10;99.90;;;;;;4235529;27;19931;-55
2022/01/15 10:47:15;;;;;;;;;;;8.30;99.90;;;;;;4240511;27;19931;-55
2022/01/15 10:49:24;;;;;;;;;;;8.50;99.90;;;;;;4235686;27;20387;-55
2022/01/15 10:51:26;;;;;;;;;;;8.80;99.90;;;;;;4233479;27;19970;-55
2022/01/15 10:53:41;;;;;;;;;;;9.30;99.90;;;;;;4234642;27;19971;-55
2022/01/15 10:55:45;;;;;;;;;;;9.80;99.90;;;;;;4239511;27;20398;-55
2022/01/15 10:57:56;;;;;;;;;;;10.30;99.90;;;;;;4236636;27;19970;-55
2022/01/15 11:00:10;;;;;;;;;;;10.40;99.90;;;;;;4228413;28;20195;-56
2022/01/15 11:02:16;;;;;;;;;;;10.80;99.90;;;;;;4235890;27;19923;-55
2022/01/15 11:04:32;;;;;;;;;;;11.10;99.90;;;;;;4249681;27;19928;-56
2022/01/15 11:06:38;;;;;;;;;;;11.40;99.90;;;;;;4234710;27;20336;-56
2022/01/15 11:08:43;;;;;;;;;;;11.60;99.90;;;;;;4242218;27;19957;-56
2022/01/15 11:10:46;;;;;;;;;;;11.80;99.90;;;;;;4218296;27;19980;-56
2022/01/15 11:12:48;;;;;;;;;;;11.90;99.90;;;;;;4239532;27;19931;-56
2022/01/15 11:14:50;;;;;;;;;;;12.10;99.90;;;;;;4233540;27;19938;-56
2022/01/15 11:16:54;;;;;;;;;;;12.30;99.90;;;;;;4245112;27;19927;-55
2022/01/15 11:18:57;;;;;;;;;;;12.10;99.90;;;;;;4198255;28;20274;-56
2022/01/15 11:21:02;;;;;;;;;;;12.40;99.90;;;;;;4234517;27;19931;-55
2022/01/15 11:23:04;;;;;;;;;;;12.40;99.90;;;;;;4234475;27;19976;-56
2022/01/15 11:25:06;;;;;;;;;;;12.30;99.90;;;;;;4244052;27;19923;-56
2022/01/15 11:27:10;;;;;;;;;;;12.20;99.90;;;;;;4232802;27;19951;-55
2022/01/15 11:29:12;;;;;;;;;;;12.10;99.90;;;;;;4227825;28;20295;-56
2022/01/15 11:31:22;;;;;;;;;;;12.30;99.90;;;;;;4231987;27;19924;-55
2022/01/15 11:33:30;;;;;;;;;;;12.70;99.90;;;;;;4232273;27;19931;-56
2022/01/15 11:35:37;;;;;;;;;;;13.00;99.90;;;;;;4232116;27;19930;-55
2022/01/15 11:37:47;;;;;;;;;;;13.40;99.90;;;;;;4240358;27;20425;-56
2022/01/15 11:39:52;;;;;;;;;;;13.70;99.90;;;;;;4234556;27;19927;-56
2022/01/15 11:41:55;;;;;;;;;;;13.90;99.90;;;;;;4227744;28;19923;-56
2022/01/15 11:43:58;;;;;;;;;;;13.50;99.90;;;;;;4234186;27;20361;-56
2022/01/15 11:46:04;;;;;;;;;;;13.40;99.90;;;;;;4230300;27;19985;-56
2022/01/15 11:48:36;;;;;;;;;;;13.70;99.90;;;;;;4232118;27;19927;-55
2022/01/15 11:50:37;;;;;;;;;;;13.70;99.90;;;;;;4215147;27;19970;-56
2022/01/15 11:52:40;;;;;;;;;;;13.60;99.90;;;;;;4233050;27;20406;-55
2022/01/15 11:54:51;;;;;;;;;;;13.70;99.90;;;;;;4230313;27;20023;-56
2022/01/15 11:56:53;;;;;;;;;;;13.70;99.90;;;;;;4233763;27;19924;-57
2022/01/15 11:58:56;;;;;;;;;;;14.30;99.90;;;;;;4235434;27;19980;-57
2022/01/15 12:00:58;;;;;;;;;;;14.10;99.90;;;;;;4232822;27;19966;-56
2022/01/15 12:03:02;;;;;;;;;;;13.90;99.90;;;;;;4242188;27;20004;-56
2022/01/15 12:05:16;;;;;;;;;;;14.10;99.90;;;;;;4234978;27;19923;-57
2022/01/15 12:07:19;;;;;;;;;;;13.90;98.90;;;;;;4238969;27;19924;-55
2022/01/15 12:09:40;;;;;;;;;;;13.90;99.10;;;;;;4232628;27;20394;-53
2022/01/15 12:11:43;;;;;;;;;;;13.80;99.90;;;;;;4241725;27;20383;-53
2022/01/15 12:13:48;;;;;;;;;;;13.80;99.40;;;;;;4236275;27;20022;-54
2022/01/15 12:16:10;;;;;;;;;;;13.70;98.80;;;;;;4241896;27;19931;-53
2022/01/15 12:18:16;;;;;;;;;;;13.60;97.80;;;;;;4235258;27;19950;-53
2022/01/15 12:20:18;;;;;;;;;;;13.60;98.40;;;;;;4239755;27;19931;-54
2022/01/15 12:22:39;;;;;;;;;;;13.80;98.10;;;;;;4235202;27;20068;-54
2022/01/15 12:24:51;;;;;;;;;;;13.90;97.90;;;;;;4237185;27;19924;-43